Impacts TAF Board
For situational awareness. Not to be used for flight planning purposes.
IDs:

KMIA - Miami Intl, FL, US

Issued at 1834 UTC 20 Sep 2018
Updated at 1957 UTC 20 Sep 2018
Potential Impact None Slight Moderate High
Time<<21/08Z 21/09Z 21/10Z 21/11Z 21/12Z 21/13Z 21/14Z 21/15Z 21/16Z 21/17Z 21/18Z 21/19Z 21/20Z>>
Type PRVL PRVL PRVL PRVL PRVL PRVL PRVL PRVL PRVL PRVL PRVL PRVL PRVL
VIS >6 >6 >6 >6 >6 >6 >6 >6 >6 >6 >6 >6 >6
CIG -- -- -- -- -- -- -- -- -- -- -- -- --
Cover SCT SCT SCT SCT SCT SCT SCT SCT SCT SCT SCT SCT SCT
FltCat VFR VFR VFR VFR VFR VFR VFR VFR VFR VFR VFR VFR VFR
WX -- -- -- -- -- -- -- -- -- -- VCTS VCTS VCTS
WDir VRB VRB VRB VRB VRB VRB VRB 70 70 70 90 90 90
WSpd 4 4 4 4 4 4 4 8 8 8 8 8 8
WGst -- -- -- -- -- -- -- -- -- -- -- -- --
Raw TAF
KMIA 201834Z 2019/2124 10009KT P6SM VCTS FEW030 BKN040CB BKN150
  FM202300 09007KT P6SM SCT030 SCT050
  FM210300 VRB04KT P6SM SCT040 SCT250
  FM211500 07008KT P6SM SCT030 SCT250
  FM211800 09008KT P6SM VCTS SCT030CB SCT050


METAR Board
Radar Display
Forecast Discussion
For situational awareness. Not to be used for flight planning purposes.